ルクソール の空港の天気 - METARとTAF

ルクソール国際空港 ( HELX / LXR ) - エジプト ルクソール
飛行場実況気象(Metar)
観測時間02/17 16:00 EET (02/17 14:00 UTC)
風向・風速北北西 3m/s
視程10km以上
天気現象
なし
気温22℃
湿度33%
気圧1019hPa
METARHELX 171400Z 33006KT CAVOK 22/05 Q1019 NOSIG
過去の天気等 Google飛行場航空写真 Wunderground天気予報

過去48時間のMETAR

飛行場予報(TAF)
発表時間: 2/17 13:00 EET (2/17 11:00 UTC)
予報対象時間: 17日14時 EET ~ 18日20時 EET
風向・風速北北西 6m/s
視程6000m
なし
TAF HELX 171100Z 1712/1818 33012KT 6000 NSC